Time;durP1;ratioP1;P1;durP2;ratioP2;P2;SDS_P1;SDS_P2;PMS_P1;PMS_P2;Temp;Humidity;BMP_temperature;BMP_pressure;BME280_temperature;BME280_humidity;BME280_pressure;Samples;Min_cycle;Max_cycle;Signal;HPM_P1;HPM_P2
2022/03/24 00:02:13;;;;;;;32.83;23.67;;;9.80;91.20;;;;;;5050248;28;20223;-41
2022/03/24 00:04:39;;;;;;;35.23;24.03;;;9.60;90.80;;;;;;5054879;28;20205;-44
2022/03/24 00:07:06;;;;;;;30.57;23.20;;;9.70;91.30;;;;;;5070776;28;20446;-41
2022/03/24 00:09:32;;;;;;;30.03;21.97;;;9.50;91.60;;;;;;5058483;28;20427;-42
2022/03/24 00:11:57;;;;;;;28.87;22.50;;;9.60;92.10;;;;;;5058270;28;20428;-41
2022/03/24 00:14:23;;;;;;;32.77;23.60;;;9.50;92.60;;;;;;5050734;28;20435;-40
2022/03/24 00:16:49;;;;;;;31.00;22.77;;;9.20;92.90;;;;;;5050394;28;20221;-43
2022/03/24 00:19:19;;;;;;;29.70;22.50;;;9.20;92.70;;;;;;5056685;28;20190;-41
2022/03/24 00:21:46;;;;;;;31.07;21.90;;;9.40;93.00;;;;;;5063337;28;20533;-41
2022/03/24 00:24:12;;;;;;;28.67;20.27;;;9.30;93.40;;;;;;5050624;28;20872;-40
2022/03/24 00:26:38;;;;;;;29.37;22.03;;;9.10;93.40;;;;;;5054653;28;20420;-41
2022/03/24 00:29:04;;;;;;;34.50;23.87;;;9.10;93.50;;;;;;5050672;28;20424;-43
2022/03/24 00:31:30;;;;;;;31.10;22.53;;;9.10;93.90;;;;;;5049199;28;20486;-45
2022/03/24 00:33:56;;;;;;;28.87;21.87;;;9.00;94.90;;;;;;5063194;28;20422;-40
2022/03/24 00:36:23;;;;;;;30.00;23.47;;;9.20;94.30;;;;;;5065742;28;20412;-41
2022/03/24 00:38:52;;;;;;;38.70;23.17;;;9.10;94.90;;;;;;5050575;28;20177;-42
2022/03/24 00:41:19;;;;;;;31.53;23.50;;;9.20;95.00;;;;;;5062789;28;20415;-42
2022/03/24 00:43:45;;;;;;;30.20;22.00;;;9.10;94.90;;;;;;5050429;28;20428;-40
2022/03/24 00:46:10;;;;;;;34.03;22.60;;;9.20;94.70;;;;;;5050205;28;20503;-43
2022/03/24 00:48:36;;;;;;;29.63;22.77;;;9.20;95.30;;;;;;5064330;28;20263;-41
2022/03/24 00:51:03;;;;;;;34.30;23.80;;;9.10;95.60;;;;;;5063497;28;20671;-42
2022/03/24 00:53:29;;;;;;;31.70;23.90;;;9.00;95.20;;;;;;5050135;28;20656;-41
2022/03/24 00:55:56;;;;;;;29.43;21.43;;;8.90;95.20;;;;;;5058454;28;20450;-42
2022/03/24 00:58:22;;;;;;;31.83;21.93;;;8.80;95.30;;;;;;5049878;28;20451;-41
2022/03/24 01:00:48;;;;;;;31.17;23.30;;;8.70;95.50;;;;;;5049246;28;20420;-42
2022/03/24 01:03:13;;;;;;;36.50;23.27;;;8.80;95.70;;;;;;5057909;28;20518;-40
2022/03/24 01:05:39;;;;;;;37.10;22.20;;;8.90;95.80;;;;;;5074306;28;20443;-41
2022/03/24 01:08:08;;;;;;;40.23;23.97;;;9.10;93.90;;;;;;5061207;28;20189;-44
2022/03/24 01:10:35;;;;;;;32.43;22.97;;;9.40;92.80;;;;;;5061621;28;20523;-42
2022/03/24 01:13:01;;;;;;;32.27;22.70;;;9.60;92.50;;;;;;5049245;28;20610;-41
2022/03/24 01:15:29;;;;;;;33.77;23.10;;;9.20;93.60;;;;;;5049838;28;20523;-41
2022/03/24 01:17:59;;;;;;;34.17;23.27;;;9.30;95.00;;;;;;5055506;28;20276;-41
2022/03/24 01:20:25;;;;;;;36.37;23.00;;;9.00;94.80;;;;;;5074398;28;20515;-41
2022/03/24 01:22:51;;;;;;;30.63;22.73;;;8.90;95.70;;;;;;5050597;28;20467;-44
2022/03/24 01:25:16;;;;;;;33.00;23.23;;;8.70;96.00;;;;;;5050693;28;20419;-42
2022/03/24 01:27:42;;;;;;;35.03;25.10;;;8.50;96.50;;;;;;5049594;28;20181;-41
2022/03/24 01:30:09;;;;;;;32.10;22.70;;;8.60;97.10;;;;;;5047416;28;20219;-42
2022/03/24 01:32:36;;;;;;;35.07;23.27;;;8.50;97.10;;;;;;5048864;28;20193;-41
2022/03/24 01:35:07;;;;;;;32.20;22.60;;;8.70;97.50;;;;;;5065010;28;21069;-41
2022/03/24 01:37:35;;;;;;;30.33;23.70;;;8.40;97.70;;;;;;5049093;28;20425;-41
2022/03/24 01:40:02;;;;;;;31.87;23.10;;;8.40;97.90;;;;;;5047126;28;21037;-42
2022/03/24 01:42:28;;;;;;;29.73;22.57;;;8.30;97.80;;;;;;5058850;28;20464;-42
2022/03/24 01:44:56;;;;;;;31.20;23.17;;;8.50;98.10;;;;;;5048978;28;20431;-41
2022/03/24 01:47:22;;;;;;;33.20;24.00;;;8.40;98.10;;;;;;5052303;28;20196;-43
2022/03/24 01:49:48;;;;;;;31.43;22.83;;;8.20;98.50;;;;;;5065398;28;20416;-42
2022/03/24 01:52:17;;;;;;;31.77;23.23;;;8.00;98.70;;;;;;5061260;28;20194;-42
2022/03/24 01:54:54;;;;;;;32.53;24.47;;;8.00;99.30;;;;;;5047520;28;20432;-42
2022/03/24 01:57:21;;;;;;;31.97;22.33;;;8.10;99.70;;;;;;5065811;28;20447;-41
2022/03/24 01:59:49;;;;;;;31.07;23.17;;;7.90;99.80;;;;;;5049149;28;20970;-41
2022/03/24 02:02:15;;;;;;;33.63;23.27;;;8.00;99.90;;;;;;5051007;28;20555;-41
2022/03/24 02:04:43;;;;;;;34.27;25.30;;;8.10;99.60;;;;;;5072785;28;20414;-43
2022/03/24 02:07:10;;;;;;;33.00;23.67;;;8.30;99.70;;;;;;5058757;28;20424;-41
2022/03/24 02:09:37;;;;;;;37.23;24.20;;;8.10;99.50;;;;;;5054578;28;20507;-44
2022/03/24 02:12:11;;;;;;;31.33;22.53;;;8.10;98.60;;;;;;5055117;28;20455;-40
2022/03/24 02:14:38;;;;;;;34.90;23.63;;;8.30;98.60;;;;;;5048714;28;20439;-41
2022/03/24 02:17:04;;;;;;;36.20;24.63;;;8.10;98.60;;;;;;5048141;28;20447;-43
2022/03/24 02:19:32;;;;;;;31.17;23.30;;;8.30;98.40;;;;;;5069230;28;20433;-42
2022/03/24 02:22:15;;;;;;;34.20;24.67;;;8.40;98.10;;;;;;5058572;28;20609;-40
2022/03/24 02:24:41;;;;;;;32.13;24.67;;;8.30;97.90;;;;;;5048929;28;20432;-40
2022/03/24 02:27:08;;;;;;;28.37;22.03;;;8.20;98.30;;;;;;5059823;28;20546;-42
2022/03/24 02:29:35;;;;;;;33.23;23.87;;;8.10;98.70;;;;;;5046586;28;20435;-44
2022/03/24 02:32:02;;;;;;;33.07;24.23;;;8.10;99.00;;;;;;5047614;28;20428;-40
2022/03/24 02:34:37;;;;;;;41.77;24.77;;;8.10;99.70;;;;;;5058717;28;20433;-41
2022/03/24 02:37:14;;;;;;;37.67;24.97;;;7.90;99.90;;;;;;5068406;28;20446;-40
2022/03/24 02:39:42;;;;;;;30.97;24.10;;;7.80;99.90;;;;;;5047763;28;20432;-42
2022/03/24 02:42:14;;;;;;;33.43;24.53;;;7.60;99.90;;;;;;5055123;28;20601;-41
2022/03/24 02:44:42;;;;;;;34.33;24.50;;;7.60;99.90;;;;;;5048362;28;20433;-41
2022/03/24 02:47:10;;;;;;;31.73;24.33;;;7.50;99.90;;;;;;5047790;28;20424;-41
2022/03/24 02:49:37;;;;;;;31.83;24.17;;;7.50;99.90;;;;;;5064758;28;20424;-41
2022/03/24 02:52:04;;;;;;;32.47;23.00;;;7.50;99.90;;;;;;5071290;28;20447;-41
2022/03/24 02:54:31;;;;;;;35.53;25.57;;;7.50;99.90;;;;;;5052587;28;20427;-41
2022/03/24 02:56:57;;;;;;;37.57;24.57;;;7.70;99.90;;;;;;5049531;28;20444;-40
2022/03/24 02:59:23;;;;;;;33.33;24.00;;;7.50;99.90;;;;;;5047999;28;20440;-40
2022/03/24 03:01:54;;;;;;;31.57;21.70;;;7.50;99.90;;;;;;5047553;28;20209;-41
2022/03/24 03:04:20;;;;;;;37.03;23.50;;;7.50;99.90;;;;;;5061730;28;20512;-42
2022/03/24 03:06:45;;;;;;;32.90;24.20;;;7.60;99.90;;;;;;5062672;28;20481;-42
2022/03/24 03:09:14;;;;;;;34.10;22.80;;;7.40;99.90;;;;;;5050592;28;20423;-40
2022/03/24 03:11:43;;;;;;;33.50;23.87;;;7.40;99.90;;;;;;5067434;28;20544;-44
2022/03/24 03:14:11;;;;;;;33.80;24.30;;;7.40;99.90;;;;;;5050850;28;20424;-41
2022/03/24 03:16:38;;;;;;;33.30;23.63;;;7.40;99.90;;;;;;5048161;28;20436;-40
2022/03/24 03:19:04;;;;;;;31.27;22.70;;;7.50;99.90;;;;;;5049916;28;20428;-42
2022/03/24 03:21:30;;;;;;;33.17;23.40;;;7.70;99.90;;;;;;5058953;28;20418;-40
2022/03/24 03:23:56;;;;;;;31.03;23.13;;;7.60;99.90;;;;;;5048970;28;20459;-46
2022/03/24 03:26:23;;;;;;;35.00;24.67;;;7.50;99.90;;;;;;5053595;28;20747;-41
2022/03/24 03:28:52;;;;;;;36.40;24.53;;;7.40;99.90;;;;;;5050120;28;20186;-40
2022/03/24 03:31:19;;;;;;;30.10;21.60;;;7.50;99.90;;;;;;5046143;28;20428;-40
2022/03/24 03:33:45;;;;;;;34.23;23.93;;;7.40;99.90;;;;;;5053428;28;20488;-44
2022/03/24 03:36:11;;;;;;;36.00;23.43;;;7.50;99.90;;;;;;5076314;28;20570;-41
2022/03/24 03:38:37;;;;;;;31.27;23.03;;;7.60;99.90;;;;;;5052096;28;20428;-41
2022/03/24 03:41:03;;;;;;;34.73;22.67;;;7.40;99.90;;;;;;5052036;28;20801;-41
2022/03/24 03:43:32;;;;;;;31.97;23.00;;;7.50;99.90;;;;;;5053545;28;20240;-41
2022/03/24 03:45:59;;;;;;;34.00;25.13;;;7.40;99.90;;;;;;5051369;28;20653;-42
2022/03/24 03:48:25;;;;;;;35.83;24.13;;;7.30;99.90;;;;;;5057750;28;20518;-41
2022/03/24 03:50:51;;;;;;;36.83;24.60;;;7.30;99.90;;;;;;5070025;28;20490;-40
2022/03/24 03:53:17;;;;;;;31.50;24.10;;;7.30;99.90;;;;;;5054458;28;20924;-40
2022/03/24 03:55:43;;;;;;;36.17;24.30;;;7.20;99.90;;;;;;5050252;28;20961;-40
2022/03/24 03:58:11;;;;;;;36.83;24.70;;;7.10;99.90;;;;;;5051901;28;20457;-40
2022/03/24 04:00:57;;;;;;;34.50;24.20;;;7.40;99.90;;;;;;5050442;28;20447;-40
2022/03/24 04:03:24;;;;;;;32.03;24.00;;;7.30;99.90;;;;;;5060605;28;21000;-41
2022/03/24 04:05:54;;;;;;;35.70;23.20;;;7.10;99.90;;;;;;5066558;28;20418;-41
2022/03/24 04:08:20;;;;;;;32.47;23.80;;;7.40;99.90;;;;;;5061993;28;20448;-44
2022/03/24 04:10:46;;;;;;;35.77;24.13;;;7.10;99.90;;;;;;5066290;28;20430;-44
2022/03/24 04:13:12;;;;;;;33.57;24.00;;;7.30;99.90;;;;;;5061713;28;20435;-41
2022/03/24 04:15:38;;;;;;;34.93;24.20;;;7.30;99.90;;;;;;5050774;28;20988;-40
2022/03/24 04:18:05;;;;;;;31.43;23.03;;;7.30;99.90;;;;;;5050291;28;20224;-41
2022/03/24 04:20:32;;;;;;;31.60;23.33;;;7.20;99.90;;;;;;5062410;28;20414;-40
2022/03/24 04:23:02;;;;;;;33.20;23.40;;;7.10;99.90;;;;;;5061748;28;20570;-40
2022/03/24 04:25:28;;;;;;;32.67;24.17;;;7.30;99.90;;;;;;5049308;28;20527;-41
2022/03/24 04:27:54;;;;;;;35.00;24.43;;;7.30;99.90;;;;;;5055683;28;20503;-40
2022/03/24 04:30:21;;;;;;;34.70;24.10;;;7.30;99.90;;;;;;5049753;28;20497;-41
2022/03/24 04:32:48;;;;;;;35.60;24.90;;;7.20;99.90;;;;;;5048752;28;20206;-44
2022/03/24 04:35:15;;;;;;;33.50;23.33;;;7.30;99.90;;;;;;5058495;28;20503;-40
2022/03/24 04:37:41;;;;;;;38.23;24.83;;;7.30;99.90;;;;;;5059907;28;20424;-41
2022/03/24 04:40:10;;;;;;;32.83;23.23;;;7.00;99.90;;;;;;5049888;28;20435;-41
2022/03/24 04:42:36;;;;;;;37.13;24.90;;;7.10;99.90;;;;;;5062260;28;20512;-47
2022/03/24 04:45:02;;;;;;;34.90;25.17;;;7.30;99.90;;;;;;5061020;28;20412;-41
2022/03/24 04:47:28;;;;;;;35.00;25.13;;;7.20;99.90;;;;;;5050108;28;20593;-41
2022/03/24 04:49:54;;;;;;;34.17;23.87;;;7.20;99.90;;;;;;5059866;28;20440;-41
2022/03/24 04:52:20;;;;;;;36.03;25.37;;;7.20;99.90;;;;;;5082357;28;20193;-42
2022/03/24 04:54:46;;;;;;;33.50;23.60;;;7.20;99.90;;;;;;5050188;28;20424;-40
2022/03/24 04:57:12;;;;;;;36.73;24.97;;;7.20;99.90;;;;;;5054976;28;20447;-43
2022/03/24 04:59:38;;;;;;;38.33;25.53;;;7.20;99.90;;;;;;5051829;28;20447;-41
2022/03/24 05:02:04;;;;;;;34.70;23.80;;;7.10;99.90;;;;;;5049828;28;20566;-40
2022/03/24 05:04:30;;;;;;;34.80;23.60;;;6.90;99.90;;;;;;5057677;28;20434;-42
2022/03/24 05:06:55;;;;;;;35.00;24.30;;;6.70;99.90;;;;;;5080872;28;20786;-45
2022/03/24 05:09:21;;;;;;;35.10;23.80;;;6.80;99.90;;;;;;5056529;28;20193;-42
2022/03/24 05:11:47;;;;;;;36.63;24.30;;;6.80;99.90;;;;;;5069402;28;20305;-41
2022/03/24 05:14:12;;;;;;;34.37;24.20;;;6.90;99.90;;;;;;5051898;28;20777;-41
2022/03/24 05:16:38;;;;;;;37.37;25.20;;;6.90;99.90;;;;;;5050036;28;20731;-42
2022/03/24 05:19:04;;;;;;;35.20;24.73;;;6.70;99.90;;;;;;5049704;28;20625;-42
2022/03/24 05:21:32;;;;;;;36.77;24.27;;;6.80;99.90;;;;;;5072623;28;20468;-40
2022/03/24 05:23:59;;;;;;;35.33;25.30;;;6.90;99.90;;;;;;5053980;28;20817;-40
2022/03/24 05:26:25;;;;;;;32.67;23.70;;;7.10;99.90;;;;;;5069421;28;20412;-42
2022/03/24 05:28:52;;;;;;;41.93;26.57;;;6.70;99.90;;;;;;5049031;28;20486;-41
2022/03/24 05:31:18;;;;;;;34.53;23.83;;;7.00;99.90;;;;;;5077966;28;20419;-40
2022/03/24 05:33:45;;;;;;;33.07;22.97;;;6.60;99.90;;;;;;5055211;28;20439;-43
2022/03/24 05:36:11;;;;;;;36.53;25.53;;;6.70;99.90;;;;;;5057513;28;20482;-40
2022/03/24 05:38:37;;;;;;;36.80;24.77;;;6.90;99.90;;;;;;5056183;28;20739;-43
2022/03/24 05:41:04;;;;;;;38.13;26.50;;;6.80;99.90;;;;;;5051534;28;20451;-40
2022/03/24 05:43:31;;;;;;;35.53;24.63;;;6.70;99.90;;;;;;5075582;28;20458;-42
2022/03/24 05:45:56;;;;;;;35.27;25.00;;;6.80;99.90;;;;;;5067697;28;20429;-40
2022/03/24 05:48:23;;;;;;;35.83;23.17;;;6.80;99.90;;;;;;5053745;28;20442;-40
2022/03/24 05:50:48;;;;;;;35.30;25.20;;;6.60;99.90;;;;;;5049914;28;20209;-41
2022/03/24 05:53:14;;;;;;;34.30;23.43;;;6.90;99.90;;;;;;5062554;28;20459;-41
2022/03/24 05:55:41;;;;;;;34.33;25.03;;;7.00;99.90;;;;;;5046318;28;20189;-40
2022/03/24 05:58:07;;;;;;;36.23;24.30;;;7.10;99.90;;;;;;5052715;28;20573;-41
2022/03/24 06:00:36;;;;;;;38.70;24.40;;;7.10;99.90;;;;;;5047170;28;20837;-40
2022/03/24 06:03:03;;;;;;;34.53;24.23;;;6.90;99.90;;;;;;5047667;28;20472;-43
2022/03/24 06:05:29;;;;;;;35.17;25.80;;;6.90;99.90;;;;;;5057853;28;20520;-42
2022/03/24 06:07:58;;;;;;;36.07;23.80;;;7.30;99.90;;;;;;5064518;28;20442;-42
2022/03/24 06:10:24;;;;;;;37.17;25.83;;;7.20;99.90;;;;;;5078887;28;20743;-40
2022/03/24 06:12:51;;;;;;;37.60;24.50;;;7.30;99.90;;;;;;5047654;28;20436;-41
2022/03/24 06:15:16;;;;;;;38.00;24.57;;;7.40;99.90;;;;;;5047114;28;20517;-41
2022/03/24 06:17:43;;;;;;;36.37;26.80;;;7.70;99.90;;;;;;5045899;28;20428;-43
2022/03/24 06:20:10;;;;;;;38.90;25.50;;;7.60;99.90;;;;;;5058071;28;20197;-40
2022/03/24 06:22:42;;;;;;;36.40;24.80;;;7.90;99.90;;;;;;5071294;28;20808;-42
2022/03/24 06:25:08;;;;;;;36.93;24.97;;;8.10;99.90;;;;;;5047355;28;20419;-41
2022/03/24 06:27:34;;;;;;;34.00;24.23;;;7.90;99.90;;;;;;5052363;28;20451;-44
2022/03/24 06:29:59;;;;;;;35.43;24.60;;;8.00;99.90;;;;;;5051806;28;20454;-40
2022/03/24 06:32:27;;;;;;;35.83;24.83;;;8.30;99.90;;;;;;5046957;28;20432;-41
2022/03/24 06:34:53;;;;;;;37.03;24.83;;;8.30;99.90;;;;;;5046570;28;20544;-41
2022/03/24 06:37:19;;;;;;;35.47;24.50;;;8.60;99.90;;;;;;5060630;28;20450;-40
2022/03/24 06:39:45;;;;;;;36.63;25.83;;;8.80;99.90;;;;;;5075125;28;20196;-42
2022/03/24 06:42:11;;;;;;;37.67;25.40;;;8.80;99.90;;;;;;5047686;28;20468;-41
2022/03/24 06:44:37;;;;;;;39.57;26.57;;;9.10;99.90;;;;;;5051891;28;20480;-41
2022/03/24 06:47:03;;;;;;;39.37;24.67;;;9.10;99.80;;;;;;5046784;28;20427;-41
2022/03/24 06:49:28;;;;;;;40.20;26.17;;;9.10;99.90;;;;;;5047558;28;20966;-41
2022/03/24 06:51:54;;;;;;;37.87;25.70;;;9.30;99.90;;;;;;5067650;28;20801;-40
2022/03/24 06:54:20;;;;;;;35.20;25.27;;;9.40;99.90;;;;;;5068186;28;20195;-41
2022/03/24 06:56:46;;;;;;;36.00;24.57;;;9.40;99.90;;;;;;5048137;28;20451;-42
2022/03/24 06:59:11;;;;;;;38.43;25.17;;;9.40;99.90;;;;;;5058490;28;20196;-43
2022/03/24 07:01:37;;;;;;;36.10;25.77;;;9.60;99.90;;;;;;5065896;28;20250;-40
2022/03/24 07:04:03;;;;;;;37.30;28.00;;;9.70;99.90;;;;;;5054497;28;20215;-41
2022/03/24 07:06:28;;;;;;;35.57;25.90;;;9.80;99.90;;;;;;5065291;28;20185;-42
2022/03/24 07:08:54;;;;;;;38.27;26.47;;;9.90;99.90;;;;;;5063514;28;20189;-43
2022/03/24 07:11:20;;;;;;;36.00;26.00;;;10.10;99.40;;;;;;5060174;28;20181;-40
2022/03/24 07:13:45;;;;;;;35.67;26.40;;;10.40;99.10;;;;;;5059864;28;20236;-43
2022/03/24 07:16:11;;;;;;;37.90;26.87;;;10.40;98.80;;;;;;5058997;28;20197;-40
2022/03/24 07:18:37;;;;;;;38.87;25.70;;;10.30;98.10;;;;;;5058987;28;20203;-43
2022/03/24 07:21:03;;;;;;;40.10;26.33;;;10.60;95.50;;;;;;5055337;28;20190;-40
2022/03/24 07:23:28;;;;;;;38.70;26.90;;;10.80;95.00;;;;;;5062521;28;20224;-42
2022/03/24 07:25:54;;;;;;;41.10;27.30;;;11.00;94.50;;;;;;5072617;28;20284;-41
2022/03/24 07:28:20;;;;;;;37.77;26.93;;;11.10;93.70;;;;;;5068108;28;20191;-42
2022/03/24 07:30:50;;;;;;;52.27;27.03;;;11.50;93.80;;;;;;5053197;28;20208;-40
2022/03/24 07:33:18;;;;;;;39.67;26.90;;;11.50;93.30;;;;;;5055579;28;20607;-42
2022/03/24 07:35:43;;;;;;;42.80;29.20;;;11.70;93.50;;;;;;5062894;28;20468;-41
2022/03/24 07:38:09;;;;;;;43.87;27.97;;;11.80;93.40;;;;;;5076010;28;20431;-44
2022/03/24 07:40:36;;;;;;;43.90;29.70;;;12.00;93.50;;;;;;5057541;28;20204;-42
2022/03/24 07:43:02;;;;;;;42.80;31.03;;;12.10;93.20;;;;;;5069022;28;20482;-41
2022/03/24 07:45:27;;;;;;;38.47;28.50;;;12.40;93.50;;;;;;5049901;28;20425;-40
2022/03/24 07:48:26;;;;;;;40.27;28.67;;;12.70;92.00;;;;;;5050150;28;20194;-44
2022/03/24 07:50:54;;;;;;;36.93;26.53;;;13.00;91.50;;;;;;5039744;28;20794;-41
2022/03/24 07:53:52;;;;;;;39.67;28.33;;;13.20;92.30;;;;;;5064531;28;20451;-42
2022/03/24 07:56:23;;;;;;;37.43;27.60;;;13.40;91.50;;;;;;5054757;28;20443;-41
2022/03/24 07:58:49;;;;;;;41.50;29.30;;;13.50;91.20;;;;;;5060911;28;20435;-40
2022/03/24 08:01:14;;;;;;;35.63;27.20;;;13.60;90.60;;;;;;5049502;28;20984;-41
2022/03/24 08:03:40;;;;;;;37.83;28.20;;;13.70;90.60;;;;;;5039561;28;20267;-41
2022/03/24 08:06:06;;;;;;;47.53;28.47;;;13.80;90.60;;;;;;5052265;28;20194;-40
2022/03/24 08:08:32;;;;;;;41.00;28.60;;;13.90;90.40;;;;;;5059309;28;20185;-42
2022/03/24 08:10:58;;;;;;;42.50;31.00;;;13.80;89.20;;;;;;5049181;28;20606;-44
2022/03/24 08:13:24;;;;;;;40.40;30.50;;;14.00;88.00;;;;;;5054118;28;20264;-43
2022/03/24 08:15:51;;;;;;;40.43;29.87;;;14.10;85.40;;;;;;5051884;28;20428;-41
2022/03/24 08:18:18;;;;;;;40.53;30.17;;;14.20;83.40;;;;;;5048551;28;20420;-40
2022/03/24 08:20:47;;;;;;;38.90;29.83;;;14.20;81.50;;;;;;5053247;28;20438;-42
2022/03/24 08:23:13;;;;;;;39.33;29.87;;;14.30;82.50;;;;;;5061725;28;20470;-40
2022/03/24 08:25:42;;;;;;;44.63;30.13;;;14.20;82.30;;;;;;5063702;28;20423;-44
2022/03/24 08:28:10;;;;;;;40.27;30.17;;;14.10;82.60;;;;;;5056706;28;20797;-42
2022/03/24 08:30:35;;;;;;;39.80;30.93;;;14.00;82.20;;;;;;5048248;28;20534;-42
2022/03/24 08:33:01;;;;;;;47.40;31.20;;;14.10;81.90;;;;;;5051160;28;20918;-40
2022/03/24 08:35:27;;;;;;;44.87;32.60;;;14.10;80.60;;;;;;5059280;28;20615;-42
2022/03/24 08:37:53;;;;;;;44.63;31.20;;;14.10;81.60;;;;;;5066370;28;20622;-42
2022/03/24 08:40:18;;;;;;;44.00;32.27;;;14.20;80.90;;;;;;5061978;28;20272;-41
2022/03/24 08:42:44;;;;;;;43.40;30.73;;;14.20;80.70;;;;;;5059450;28;20555;-42
2022/03/24 08:45:12;;;;;;;43.87;31.63;;;14.40;80.10;;;;;;5058972;28;20185;-46
2022/03/24 08:47:39;;;;;;;39.00;28.20;;;14.40;80.70;;;;;;5056029;28;20598;-41
2022/03/24 08:50:07;;;;;;;38.97;29.00;;;14.50;82.60;;;;;;5053014;28;20443;-43
2022/03/24 08:52:33;;;;;;;39.37;31.17;;;14.70;82.30;;;;;;5079711;28;20773;-41
2022/03/24 08:54:59;;;;;;;42.00;29.60;;;14.80;83.40;;;;;;5053872;28;20434;-41
2022/03/24 08:57:28;;;;;;;49.07;33.47;;;14.90;81.80;;;;;;5047457;28;20974;-42
2022/03/24 09:00:00;;;;;;;37.23;29.27;;;15.00;80.20;;;;;;5057928;28;20217;-41
2022/03/24 09:02:26;;;;;;;38.93;29.57;;;15.10;79.90;;;;;;5047634;28;20966;-42
2022/03/24 09:04:52;;;;;;;44.10;32.00;;;15.10;75.50;;;;;;5046302;28;20435;-47
2022/03/24 09:07:19;;;;;;;41.57;31.37;;;15.10;76.00;;;;;;5058110;28;20808;-41
2022/03/24 09:09:44;;;;;;;42.90;30.33;;;15.20;76.50;;;;;;5055488;28;20772;-41
2022/03/24 09:12:10;;;;;;;43.53;31.30;;;15.30;75.10;;;;;;5068112;28;20717;-41
2022/03/24 09:14:40;;;;;;;40.30;30.60;;;15.40;74.00;;;;;;5048216;28;20201;-44
2022/03/24 09:17:08;;;;;;;45.43;32.70;;;15.50;76.10;;;;;;5047359;28;20439;-40
2022/03/24 09:19:34;;;;;;;44.03;32.73;;;15.60;74.90;;;;;;5048917;28;20915;-41
2022/03/24 09:22:02;;;;;;;43.93;31.83;;;15.60;73.60;;;;;;5069494;28;20550;-42
2022/03/24 09:24:28;;;;;;;41.07;31.80;;;15.70;75.40;;;;;;5058972;28;21021;-42
2022/03/24 09:26:54;;;;;;;40.90;30.37;;;15.80;72.70;;;;;;5052388;28;20507;-42
2022/03/24 09:29:21;;;;;;;40.07;30.57;;;16.00;74.10;;;;;;5049230;28;20190;-40
2022/03/24 09:31:47;;;;;;;40.30;30.27;;;16.10;71.80;;;;;;5046183;28;20263;-44
2022/03/24 09:34:13;;;;;;;43.57;31.40;;;16.30;73.20;;;;;;5046520;28;20423;-40
2022/03/24 09:36:39;;;;;;;41.97;30.67;;;16.60;74.70;;;;;;5058529;28;20430;-41
2022/03/24 09:39:07;;;;;;;43.13;32.57;;;16.90;71.60;;;;;;5081438;28;20542;-41
2022/03/24 09:41:35;;;;;;;38.83;29.47;;;17.00;68.80;;;;;;5047170;28;20798;-42
2022/03/24 09:44:01;;;;;;;46.20;31.40;;;17.20;70.50;;;;;;5052836;28;20463;-42
2022/03/24 09:46:28;;;;;;;45.03;32.17;;;17.40;67.60;;;;;;5051433;28;20416;-40
2022/03/24 09:48:55;;;;;;;42.87;30.87;;;17.60;69.50;;;;;;5047989;28;20898;-41
2022/03/24 09:51:24;;;;;;;37.03;28.70;;;17.80;68.40;;;;;;5052598;28;20803;-42
2022/03/24 09:53:50;;;;;;;42.17;31.27;;;18.00;64.60;;;;;;5078930;28;20422;-40
2022/03/24 09:56:17;;;;;;;41.63;29.57;;;18.30;66.20;;;;;;5051327;28;20820;-41
2022/03/24 09:58:44;;;;;;;37.90;30.37;;;18.40;62.40;;;;;;5050273;28;20204;-42
2022/03/24 10:01:13;;;;;;;44.00;31.27;;;18.70;64.20;;;;;;5049519;28;20949;-41
2022/03/24 10:03:39;;;;;;;41.10;32.80;;;18.80;63.40;;;;;;5046108;28;21046;-41
2022/03/24 10:06:07;;;;;;;40.10;32.00;;;18.90;61.90;;;;;;5047233;28;20511;-41
2022/03/24 10:08:34;;;;;;;40.90;32.67;;;18.90;63.60;;;;;;5056896;28;20423;-42
2022/03/24 10:11:02;;;;;;;38.70;31.33;;;19.00;61.60;;;;;;5055348;28;20424;-41
2022/03/24 10:13:41;;;;;;;42.10;31.57;;;19.20;61.60;;;;;;5046117;28;20787;-41
2022/03/24 10:16:08;;;;;;;36.93;29.80;;;19.20;59.50;;;;;;5066836;28;20913;-44
2022/03/24 10:18:34;;;;;;;42.53;32.40;;;19.20;58.50;;;;;;5067507;28;20431;-40
2022/03/24 10:21:08;;;;;;;39.20;29.87;;;19.20;58.70;;;;;;5060565;28;20432;-42
2022/03/24 10:23:43;;;;;;;37.57;29.13;;;19.30;57.70;;;;;;5059050;28;20204;-41
2022/03/24 10:26:08;;;;;;;36.43;29.80;;;19.40;55.80;;;;;;5052128;28;20771;-41
2022/03/24 10:28:34;;;;;;;40.60;31.57;;;19.20;54.30;;;;;;5046993;28;20641;-40
2022/03/24 10:31:02;;;;;;;38.57;32.43;;;19.30;55.70;;;;;;5058066;28;20190;-40
2022/03/24 10:33:40;;;;;;;38.90;31.37;;;19.40;57.70;;;;;;5046886;28;20216;-43
2022/03/24 10:36:17;;;;;;;37.07;29.80;;;19.50;55.70;;;;;;5047626;28;20871;-41
2022/03/24 10:38:45;;;;;;;37.73;31.87;;;19.60;54.80;;;;;;5065665;28;20426;-41
2022/03/24 10:41:22;;;;;;;36.30;29.23;;;19.70;54.90;;;;;;5055941;28;20429;-41
2022/03/24 10:43:50;;;;;;;39.60;29.17;;;19.80;54.30;;;;;;5054293;28;20470;-41
2022/03/24 10:46:18;;;;;;;40.00;29.17;;;19.80;52.40;;;;;;5052496;28;20474;-42
2022/03/24 10:48:47;;;;;;;34.47;28.63;;;19.80;51.30;;;;;;5047027;28;21026;-42
2022/03/24 10:51:24;;;;;;;33.73;27.30;;;19.80;51.30;;;;;;5048259;28;20462;-43
2022/03/24 10:53:51;;;;;;;31.27;25.53;;;19.80;50.80;;;;;;5066883;28;20830;-41
2022/03/24 10:56:27;;;;;;;31.70;25.67;;;19.80;48.00;;;;;;5049626;28;20421;-44
2022/03/24 10:59:03;;;;;;;30.00;25.10;;;19.90;48.10;;;;;;5047125;28;20423;-41
2022/03/24 11:01:31;;;;;;;36.67;25.50;;;19.90;48.70;;;;;;5051642;28;20488;-41
2022/03/24 11:03:57;;;;;;;34.40;25.20;;;20.00;49.70;;;;;;5066656;28;20467;-41
2022/03/24 11:06:23;;;;;;;29.23;24.40;;;20.00;48.60;;;;;;5064268;28;20437;-41
2022/03/24 11:08:58;;;;;;;32.73;26.00;;;19.80;49.70;;;;;;5066797;28;20176;-42
2022/03/24 11:11:23;;;;;;;24.10;20.20;;;19.80;48.90;;;;;;5057506;28;20685;-41
2022/03/24 11:13:52;;;;;;;24.93;18.40;;;19.90;48.70;;;;;;5047142;28;20471;-41
2022/03/24 11:16:23;;;;;;;31.47;22.97;;;20.00;47.70;;;;;;5057573;28;20420;-43
2022/03/24 11:18:51;;;;;;;35.03;24.80;;;20.10;47.70;;;;;;5050031;28;20424;-41
2022/03/24 11:21:20;;;;;;;31.07;24.73;;;20.20;45.80;;;;;;5057763;28;20439;-42
2022/03/24 11:23:46;;;;;;;31.33;25.67;;;20.30;46.10;;;;;;5057527;28;20459;-41
2022/03/24 11:26:13;;;;;;;32.43;27.53;;;20.30;48.20;;;;;;5062084;28;20937;-41
2022/03/24 11:28:39;;;;;;;36.03;28.37;;;20.20;46.70;;;;;;5046574;28;20458;-43
2022/03/24 11:31:11;;;;;;;36.50;28.10;;;20.30;49.60;;;;;;5052524;28;20934;-42
2022/03/24 11:33:43;;;;;;;35.40;27.50;;;20.50;50.30;;;;;;5045347;28;20424;-42
2022/03/24 11:36:09;;;;;;;38.10;28.97;;;20.60;49.60;;;;;;5047295;28;20934;-42
2022/03/24 11:38:38;;;;;;;32.20;25.77;;;20.80;48.80;;;;;;5063729;28;20913;-41
2022/03/24 11:41:07;;;;;;;35.80;26.50;;;20.70;45.60;;;;;;5064989;28;20584;-44
2022/03/24 11:43:36;;;;;;;35.60;26.07;;;20.60;46.70;;;;;;5047807;28;20471;-45
2022/03/24 11:46:11;;;;;;;38.57;29.23;;;20.80;48.20;;;;;;5049221;28;20520;-41
2022/03/24 11:48:42;;;;;;;32.80;28.63;;;20.80;46.10;;;;;;5045474;28;20423;-41
2022/03/24 11:51:23;;;;;;;34.70;27.77;;;20.80;46.20;;;;;;5046274;28;20416;-44
2022/03/24 11:54:04;;;;;;;34.97;28.10;;;20.70;44.70;;;;;;5070445;28;20483;-41
2022/03/24 11:56:30;;;;;;;32.27;27.63;;;20.60;44.20;;;;;;5053223;28;20436;-41
2022/03/24 11:58:56;;;;;;;37.20;29.27;;;20.60;44.30;;;;;;5050104;28;20788;-42
2022/03/24 12:01:23;;;;;;;34.63;28.70;;;20.60;45.30;;;;;;5060242;28;20417;-42
2022/03/24 12:04:08;;;;;;;34.10;26.63;;;20.60;45.60;;;;;;5049821;28;20697;-43
2022/03/24 12:06:40;;;;;;;32.80;27.13;;;20.50;45.20;;;;;;5053384;28;20464;-41
2022/03/24 12:09:08;;;;;;;36.40;27.73;;;20.40;45.40;;;;;;5050292;28;20961;-42
2022/03/24 12:11:33;;;;;;;37.00;28.00;;;20.50;46.30;;;;;;5065681;28;20428;-42
2022/03/24 12:14:20;;;;;;;38.90;28.47;;;20.50;45.30;;;;;;5049708;28;20472;-41
2022/03/24 12:16:48;;;;;;;34.57;29.20;;;20.50;42.80;;;;;;5056520;28;20578;-41
2022/03/24 12:19:35;;;;;;;35.53;28.83;;;20.50;43.70;;;;;;5049173;28;20424;-42
2022/03/24 12:22:31;;;;;;;34.40;28.00;;;20.50;44.50;;;;;;5050905;28;20435;-42
2022/03/24 12:24:59;;;;;;;34.33;28.50;;;20.50;45.30;;;;;;5064069;28;20828;-42
2022/03/24 12:27:26;;;;;;;34.57;27.97;;;20.40;45.10;;;;;;5056220;28;21099;-41
2022/03/24 12:30:15;;;;;;;37.43;28.83;;;20.50;45.30;;;;;;5050964;28;20420;-43
2022/03/24 12:32:43;;;;;;;36.37;29.67;;;20.50;47.20;;;;;;5054824;28;20420;-42
2022/03/24 12:35:29;;;;;;;35.60;28.50;;;20.70;46.40;;;;;;5059750;28;20519;-41
2022/03/24 12:37:55;;;;;;;38.77;29.67;;;20.60;44.60;;;;;;5059891;28;20438;-41